sensor_id;sensor_type;location;lat;lon;timestamp;pressure;altitude;pressure_sealevel;temperature;humidity
84714;BME280;74938;42.658;23.248;2024-03-22T00:00:19;94042.75;;;5.60;49.18
84714;BME280;74938;42.658;23.248;2024-03-22T00:02:44;94045.44;;;5.36;47.63
84714;BME280;74938;42.658;23.248;2024-03-22T00:05:10;94040.31;;;5.28;48.32
84714;BME280;74938;42.658;23.248;2024-03-22T00:07:35;94045.78;;;5.64;47.95
84714;BME280;74938;42.658;23.248;2024-03-22T00:10:01;94045.00;;;5.55;49.71
84714;BME280;74938;42.658;23.248;2024-03-22T00:12:27;94045.38;;;5.44;48.68
84714;BME280;74938;42.658;23.248;2024-03-22T00:14:52;94042.75;;;5.91;49.94
84714;BME280;74938;42.658;23.248;2024-03-22T00:17:20;94047.72;;;5.93;49.67
84714;BME280;74938;42.658;23.248;2024-03-22T00:19:45;94036.53;;;5.86;51.04
84714;BME280;74938;42.658;23.248;2024-03-22T00:22:10;94037.66;;;5.83;47.99
84714;BME280;74938;42.658;23.248;2024-03-22T00:24:36;94039.25;;;5.84;48.04
84714;BME280;74938;42.658;23.248;2024-03-22T00:27:01;94030.81;;;5.76;47.29
84714;BME280;74938;42.658;23.248;2024-03-22T00:29:26;94037.78;;;5.20;50.92
84714;BME280;74938;42.658;23.248;2024-03-22T00:31:52;94036.06;;;5.51;48.97
84714;BME280;74938;42.658;23.248;2024-03-22T00:34:17;94040.31;;;5.36;50.04
84714;BME280;74938;42.658;23.248;2024-03-22T00:36:43;94042.44;;;5.55;51.09
84714;BME280;74938;42.658;23.248;2024-03-22T00:39:08;94042.34;;;5.41;48.39
84714;BME280;74938;42.658;23.248;2024-03-22T00:41:33;94045.13;;;5.62;48.76
84714;BME280;74938;42.658;23.248;2024-03-22T00:43:59;94045.56;;;5.74;49.54
84714;BME280;74938;42.658;23.248;2024-03-22T00:46:24;94044.31;;;5.70;48.86
84714;BME280;74938;42.658;23.248;2024-03-22T00:48:50;94051.06;;;5.63;49.45
84714;BME280;74938;42.658;23.248;2024-03-22T00:51:15;94043.69;;;5.68;50.54
84714;BME280;74938;42.658;23.248;2024-03-22T00:53:40;94046.41;;;5.35;51.04
84714;BME280;74938;42.658;23.248;2024-03-22T00:56:06;94050.31;;;5.07;51.84
84714;BME280;74938;42.658;23.248;2024-03-22T00:58:31;94045.25;;;4.82;53.76
84714;BME280;74938;42.658;23.248;2024-03-22T01:00:57;94048.34;;;4.62;56.10
84714;BME280;74938;42.658;23.248;2024-03-22T01:03:22;94043.59;;;5.06;52.11
84714;BME280;74938;42.658;23.248;2024-03-22T01:05:48;94048.06;;;5.12;52.52
84714;BME280;74938;42.658;23.248;2024-03-22T01:08:14;94054.91;;;5.28;53.76
84714;BME280;74938;42.658;23.248;2024-03-22T01:10:40;94054.34;;;5.01;54.19
84714;BME280;74938;42.658;23.248;2024-03-22T01:13:05;94051.97;;;4.92;53.02
84714;BME280;74938;42.658;23.248;2024-03-22T01:15:31;94050.63;;;5.04;51.18
84714;BME280;74938;42.658;23.248;2024-03-22T01:17:56;94053.34;;;5.02;52.19
84714;BME280;74938;42.658;23.248;2024-03-22T01:20:22;94048.72;;;5.06;52.58
84714;BME280;74938;42.658;23.248;2024-03-22T01:22:47;94048.44;;;5.01;53.43
84714;BME280;74938;42.658;23.248;2024-03-22T01:25:12;94054.06;;;4.80;54.60
84714;BME280;74938;42.658;23.248;2024-03-22T01:27:38;94050.06;;;4.77;54.45
84714;BME280;74938;42.658;23.248;2024-03-22T01:30:04;94048.31;;;4.70;53.85
84714;BME280;74938;42.658;23.248;2024-03-22T01:32:29;94052.00;;;4.67;53.22
84714;BME280;74938;42.658;23.248;2024-03-22T01:34:54;94052.63;;;4.77;52.11
84714;BME280;74938;42.658;23.248;2024-03-22T01:37:20;94047.81;;;4.74;52.70
84714;BME280;74938;42.658;23.248;2024-03-22T01:39:45;94049.09;;;4.70;54.53
84714;BME280;74938;42.658;23.248;2024-03-22T01:42:11;94048.16;;;4.79;52.78
84714;BME280;74938;42.658;23.248;2024-03-22T01:44:36;94041.44;;;4.70;52.61
84714;BME280;74938;42.658;23.248;2024-03-22T01:47:02;94029.94;;;4.58;52.40
84714;BME280;74938;42.658;23.248;2024-03-22T01:49:28;94041.78;;;4.59;51.90
84714;BME280;74938;42.658;23.248;2024-03-22T01:51:54;94031.19;;;4.70;52.71
84714;BME280;74938;42.658;23.248;2024-03-22T01:54:20;94029.75;;;4.76;53.38
84714;BME280;74938;42.658;23.248;2024-03-22T01:56:46;94037.91;;;4.71;53.39
84714;BME280;74938;42.658;23.248;2024-03-22T01:59:12;94036.34;;;4.62;53.21
84714;BME280;74938;42.658;23.248;2024-03-22T02:01:37;94043.06;;;4.14;55.69
84714;BME280;74938;42.658;23.248;2024-03-22T02:04:03;94037.94;;;4.23;58.13
84714;BME280;74938;42.658;23.248;2024-03-22T02:06:28;94042.59;;;4.43;57.28
84714;BME280;74938;42.658;23.248;2024-03-22T02:08:54;94038.41;;;4.67;55.05
84714;BME280;74938;42.658;23.248;2024-03-22T02:11:19;94041.59;;;4.69;56.13
84714;BME280;74938;42.658;23.248;2024-03-22T02:13:45;94033.78;;;4.62;53.17
84714;BME280;74938;42.658;23.248;2024-03-22T02:16:11;94033.28;;;4.75;52.69
84714;BME280;74938;42.658;23.248;2024-03-22T02:18:36;94031.66;;;4.82;51.99
84714;BME280;74938;42.658;23.248;2024-03-22T02:21:02;94043.06;;;4.63;56.25
84714;BME280;74938;42.658;23.248;2024-03-22T02:23:40;94038.22;;;4.76;56.04
84714;BME280;74938;42.658;23.248;2024-03-22T02:26:06;94038.22;;;4.68;56.24
84714;BME280;74938;42.658;23.248;2024-03-22T02:28:33;94042.22;;;4.71;56.45
84714;BME280;74938;42.658;23.248;2024-03-22T02:30:59;94045.28;;;4.58;55.15
84714;BME280;74938;42.658;23.248;2024-03-22T02:33:25;94045.75;;;4.78;53.83
84714;BME280;74938;42.658;23.248;2024-03-22T02:35:50;94051.19;;;4.75;54.04
84714;BME280;74938;42.658;23.248;2024-03-22T02:38:17;94046.38;;;4.72;52.65
84714;BME280;74938;42.658;23.248;2024-03-22T02:40:43;94049.06;;;4.86;52.19
84714;BME280;74938;42.658;23.248;2024-03-22T02:43:08;94047.94;;;4.97;52.08
84714;BME280;74938;42.658;23.248;2024-03-22T02:45:34;94045.56;;;4.96;52.52
84714;BME280;74938;42.658;23.248;2024-03-22T02:47:59;94041.72;;;4.92;51.76
84714;BME280;74938;42.658;23.248;2024-03-22T02:50:24;94048.91;;;4.96;53.33
84714;BME280;74938;42.658;23.248;2024-03-22T02:52:50;94049.03;;;5.11;52.12
84714;BME280;74938;42.658;23.248;2024-03-22T02:55:15;94054.16;;;5.03;51.76
84714;BME280;74938;42.658;23.248;2024-03-22T02:57:41;94050.00;;;5.10;51.80
84714;BME280;74938;42.658;23.248;2024-03-22T03:00:07;94057.03;;;5.08;51.60
84714;BME280;74938;42.658;23.248;2024-03-22T03:02:32;94062.34;;;4.98;51.54
84714;BME280;74938;42.658;23.248;2024-03-22T03:04:58;94071.97;;;4.88;53.13
84714;BME280;74938;42.658;23.248;2024-03-22T03:07:26;94065.41;;;4.94;54.08
84714;BME280;74938;42.658;23.248;2024-03-22T03:09:53;94069.59;;;4.70;53.82
84714;BME280;74938;42.658;23.248;2024-03-22T03:12:18;94068.44;;;4.97;53.13
84714;BME280;74938;42.658;23.248;2024-03-22T03:14:43;94076.97;;;4.57;55.34
84714;BME280;74938;42.658;23.248;2024-03-22T03:17:09;94076.00;;;4.09;56.17
84714;BME280;74938;42.658;23.248;2024-03-22T03:19:36;94077.44;;;4.12;57.16
84714;BME280;74938;42.658;23.248;2024-03-22T03:22:01;94075.66;;;3.96;58.21
84714;BME280;74938;42.658;23.248;2024-03-22T03:24:27;94078.84;;;3.90;57.88
84714;BME280;74938;42.658;23.248;2024-03-22T03:26:52;94076.59;;;4.03;57.86
84714;BME280;74938;42.658;23.248;2024-03-22T03:29:17;94086.34;;;3.92;56.73
84714;BME280;74938;42.658;23.248;2024-03-22T03:31:43;94078.56;;;4.34;55.12
84714;BME280;74938;42.658;23.248;2024-03-22T03:34:08;94084.00;;;4.31;55.94
84714;BME280;74938;42.658;23.248;2024-03-22T03:36:33;94087.50;;;4.54;55.85
84714;BME280;74938;42.658;23.248;2024-03-22T03:38:59;94087.31;;;3.99;56.09
84714;BME280;74938;42.658;23.248;2024-03-22T03:41:24;94090.41;;;3.60;58.64
84714;BME280;74938;42.658;23.248;2024-03-22T03:43:49;94093.22;;;3.49;59.70
84714;BME280;74938;42.658;23.248;2024-03-22T03:46:15;94088.38;;;3.72;58.44
84714;BME280;74938;42.658;23.248;2024-03-22T03:48:40;94095.19;;;4.13;57.19
84714;BME280;74938;42.658;23.248;2024-03-22T03:51:06;94105.09;;;4.25;57.82
84714;BME280;74938;42.658;23.248;2024-03-22T03:53:31;94093.28;;;4.15;56.39
84714;BME280;74938;42.658;23.248;2024-03-22T03:55:56;94108.44;;;4.09;57.57
84714;BME280;74938;42.658;23.248;2024-03-22T03:58:22;94107.50;;;3.68;59.94
84714;BME280;74938;42.658;23.248;2024-03-22T04:00:47;94111.88;;;3.83;58.00
84714;BME280;74938;42.658;23.248;2024-03-22T04:03:13;94107.19;;;3.63;59.57
84714;BME280;74938;42.658;23.248;2024-03-22T04:05:39;94115.94;;;3.52;59.04
84714;BME280;74938;42.658;23.248;2024-03-22T04:08:04;94122.19;;;3.58;59.00
84714;BME280;74938;42.658;23.248;2024-03-22T04:10:30;94114.91;;;3.79;58.17
84714;BME280;74938;42.658;23.248;2024-03-22T04:12:55;94115.06;;;3.77;57.85
84714;BME280;74938;42.658;23.248;2024-03-22T04:15:21;94124.19;;;3.88;57.44
84714;BME280;74938;42.658;23.248;2024-03-22T04:17:46;94125.31;;;3.85;57.51
84714;BME280;74938;42.658;23.248;2024-03-22T04:20:11;94126.94;;;3.44;60.37
84714;BME280;74938;42.658;23.248;2024-03-22T04:22:37;94121.50;;;3.47;59.27
84714;BME280;74938;42.658;23.248;2024-03-22T04:25:03;94126.34;;;3.67;58.33
84714;BME280;74938;42.658;23.248;2024-03-22T04:27:28;94128.69;;;3.94;57.56
84714;BME280;74938;42.658;23.248;2024-03-22T04:29:54;94119.53;;;3.75;58.51
84714;BME280;74938;42.658;23.248;2024-03-22T04:32:19;94130.06;;;3.72;58.41
84714;BME280;74938;42.658;23.248;2024-03-22T04:34:44;94131.75;;;3.56;58.23
84714;BME280;74938;42.658;23.248;2024-03-22T04:37:10;94131.59;;;3.57;58.94
84714;BME280;74938;42.658;23.248;2024-03-22T04:39:40;94134.00;;;3.59;57.95
84714;BME280;74938;42.658;23.248;2024-03-22T04:42:05;94134.56;;;3.78;58.62
84714;BME280;74938;42.658;23.248;2024-03-22T04:44:31;94130.75;;;3.91;59.02
84714;BME280;74938;42.658;23.248;2024-03-22T04:46:56;94135.41;;;3.95;58.70
84714;BME280;74938;42.658;23.248;2024-03-22T04:49:21;94135.22;;;3.89;58.13
84714;BME280;74938;42.658;23.248;2024-03-22T04:51:47;94130.25;;;3.79;59.84
84714;BME280;74938;42.658;23.248;2024-03-22T04:54:12;94141.69;;;3.67;59.59
84714;BME280;74938;42.658;23.248;2024-03-22T04:56:39;94143.97;;;3.10;61.56
84714;BME280;74938;42.658;23.248;2024-03-22T04:59:04;94147.66;;;2.90;62.48
84714;BME280;74938;42.658;23.248;2024-03-22T05:01:30;94145.97;;;2.72;63.40
84714;BME280;74938;42.658;23.248;2024-03-22T05:03:55;94146.78;;;2.81;62.48
84714;BME280;74938;42.658;23.248;2024-03-22T05:06:21;94151.84;;;2.91;63.65
84714;BME280;74938;42.658;23.248;2024-03-22T05:08:46;94154.28;;;3.26;62.30
84714;BME280;74938;42.658;23.248;2024-03-22T05:11:11;94146.22;;;3.81;60.88
84714;BME280;74938;42.658;23.248;2024-03-22T05:13:37;94145.69;;;3.69;60.14
84714;BME280;74938;42.658;23.248;2024-03-22T05:16:04;94149.84;;;4.12;61.19
84714;BME280;74938;42.658;23.248;2024-03-22T05:18:30;94160.53;;;4.08;60.35
84714;BME280;74938;42.658;23.248;2024-03-22T05:20:55;94160.00;;;3.88;62.11
84714;BME280;74938;42.658;23.248;2024-03-22T05:23:21;94161.88;;;3.78;61.38
84714;BME280;74938;42.658;23.248;2024-03-22T05:25:46;94160.34;;;3.93;60.83
84714;BME280;74938;42.658;23.248;2024-03-22T05:28:11;94164.16;;;3.89;61.76
84714;BME280;74938;42.658;23.248;2024-03-22T05:30:37;94167.47;;;4.40;59.78
84714;BME280;74938;42.658;23.248;2024-03-22T05:33:02;94166.38;;;4.42;60.80
84714;BME280;74938;42.658;23.248;2024-03-22T05:35:27;94166.53;;;4.49;60.13
84714;BME280;74938;42.658;23.248;2024-03-22T05:37:53;94167.31;;;4.41;59.13
84714;BME280;74938;42.658;23.248;2024-03-22T05:40:18;94165.59;;;4.58;58.43
84714;BME280;74938;42.658;23.248;2024-03-22T05:42:44;94181.28;;;4.79;57.31
84714;BME280;74938;42.658;23.248;2024-03-22T05:45:09;94178.84;;;5.02;57.55
84714;BME280;74938;42.658;23.248;2024-03-22T05:47:34;94176.31;;;4.94;56.55
84714;BME280;74938;42.658;23.248;2024-03-22T05:50:00;94181.59;;;5.01;55.91
84714;BME280;74938;42.658;23.248;2024-03-22T05:52:27;94181.59;;;5.17;56.79
84714;BME280;74938;42.658;23.248;2024-03-22T05:54:52;94181.09;;;5.05;56.51
84714;BME280;74938;42.658;23.248;2024-03-22T05:57:18;94189.41;;;5.32;55.07
84714;BME280;74938;42.658;23.248;2024-03-22T05:59:43;94184.13;;;5.33;53.30
84714;BME280;74938;42.658;23.248;2024-03-22T06:02:08;94187.97;;;5.29;53.70
84714;BME280;74938;42.658;23.248;2024-03-22T06:04:34;94186.03;;;5.47;53.63
84714;BME280;74938;42.658;23.248;2024-03-22T06:07:00;94188.19;;;5.75;53.77
84714;BME280;74938;42.658;23.248;2024-03-22T06:09:28;94186.88;;;5.87;52.60
84714;BME280;74938;42.658;23.248;2024-03-22T06:12:05;94187.75;;;6.18;51.68
84714;BME280;74938;42.658;23.248;2024-03-22T06:14:31;94188.19;;;6.76;49.09
84714;BME280;74938;42.658;23.248;2024-03-22T06:16:57;94186.69;;;7.27;49.24
84714;BME280;74938;42.658;23.248;2024-03-22T06:19:23;94187.56;;;8.22;46.51
84714;BME280;74938;42.658;23.248;2024-03-22T06:21:48;94183.31;;;10.20;42.55
84714;BME280;74938;42.658;23.248;2024-03-22T06:24:14;94193.50;;;11.68;37.59
84714;BME280;74938;42.658;23.248;2024-03-22T06:26:39;94188.25;;;13.03;34.81
84714;BME280;74938;42.658;23.248;2024-03-22T06:29:04;94183.03;;;14.46;32.86
84714;BME280;74938;42.658;23.248;2024-03-22T06:31:31;94193.66;;;15.34;30.56
84714;BME280;74938;42.658;23.248;2024-03-22T06:33:56;94189.19;;;16.23;29.18
84714;BME280;74938;42.658;23.248;2024-03-22T06:36:27;94184.25;;;17.18;27.46
84714;BME280;74938;42.658;23.248;2024-03-22T06:38:53;94191.66;;;17.88;25.98
84714;BME280;74938;42.658;23.248;2024-03-22T06:41:18;94187.13;;;18.17;25.22
84714;BME280;74938;42.658;23.248;2024-03-22T06:43:43;94188.28;;;18.26;25.00
84714;BME280;74938;42.658;23.248;2024-03-22T06:46:09;94197.72;;;18.27;24.78
84714;BME280;74938;42.658;23.248;2024-03-22T06:48:34;94198.13;;;18.80;24.39
84714;BME280;74938;42.658;23.248;2024-03-22T06:50:59;94212.28;;;19.86;23.48
84714;BME280;74938;42.658;23.248;2024-03-22T06:53:25;94203.63;;;19.54;23.10
84714;BME280;74938;42.658;23.248;2024-03-22T06:55:50;94221.38;;;19.78;23.19
84714;BME280;74938;42.658;23.248;2024-03-22T06:58:16;94213.25;;;19.80;22.14
84714;BME280;74938;42.658;23.248;2024-03-22T07:00:41;94214.34;;;19.84;22.37
84714;BME280;74938;42.658;23.248;2024-03-22T07:03:06;94214.63;;;20.25;22.19
84714;BME280;74938;42.658;23.248;2024-03-22T07:05:32;94215.03;;;21.06;20.90
84714;BME280;74938;42.658;23.248;2024-03-22T07:07:57;94217.22;;;21.49;20.12
84714;BME280;74938;42.658;23.248;2024-03-22T07:10:23;94214.72;;;20.92;20.73
84714;BME280;74938;42.658;23.248;2024-03-22T07:12:55;94219.22;;;21.02;20.35
84714;BME280;74938;42.658;23.248;2024-03-22T07:15:23;94219.84;;;21.29;20.04
84714;BME280;74938;42.658;23.248;2024-03-22T07:17:48;94218.81;;;21.40;20.79
84714;BME280;74938;42.658;23.248;2024-03-22T07:20:14;94221.22;;;22.18;19.63
84714;BME280;74938;42.658;23.248;2024-03-22T07:22:39;94220.88;;;22.55;19.19
84714;BME280;74938;42.658;23.248;2024-03-22T07:25:05;94209.38;;;22.00;20.09
84714;BME280;74938;42.658;23.248;2024-03-22T07:27:30;94207.50;;;21.65;19.95
84714;BME280;74938;42.658;23.248;2024-03-22T07:29:56;94227.53;;;20.31;20.37
84714;BME280;74938;42.658;23.248;2024-03-22T07:32:22;94227.41;;;20.53;20.75
84714;BME280;74938;42.658;23.248;2024-03-22T07:34:47;94222.28;;;21.97;19.23
84714;BME280;74938;42.658;23.248;2024-03-22T07:37:13;94222.78;;;21.88;19.73
84714;BME280;74938;42.658;23.248;2024-03-22T07:39:38;94220.66;;;21.40;19.64
84714;BME280;74938;42.658;23.248;2024-03-22T07:42:04;94218.16;;;22.90;19.00
84714;BME280;74938;42.658;23.248;2024-03-22T07:44:29;94221.22;;;22.08;19.17
84714;BME280;74938;42.658;23.248;2024-03-22T07:46:54;94218.84;;;22.27;19.87
84714;BME280;74938;42.658;23.248;2024-03-22T07:49:20;94223.75;;;22.79;18.92
84714;BME280;74938;42.658;23.248;2024-03-22T07:51:45;94223.59;;;22.30;19.47
84714;BME280;74938;42.658;23.248;2024-03-22T07:54:11;94228.31;;;24.01;18.41
84714;BME280;74938;42.658;23.248;2024-03-22T07:56:36;94227.25;;;23.68;18.24
84714;BME280;74938;42.658;23.248;2024-03-22T07:59:02;94224.03;;;22.57;18.85
84714;BME280;74938;42.658;23.248;2024-03-22T08:01:27;94232.78;;;20.73;20.87
84714;BME280;74938;42.658;23.248;2024-03-22T08:03:53;94229.00;;;19.80;23.10
84714;BME280;74938;42.658;23.248;2024-03-22T08:06:18;94222.34;;;18.92;22.95
84714;BME280;74938;42.658;23.248;2024-03-22T08:08:44;94227.09;;;17.51;26.08
84714;BME280;74938;42.658;23.248;2024-03-22T08:11:09;94226.41;;;17.55;25.60
84714;BME280;74938;42.658;23.248;2024-03-22T08:13:35;94234.03;;;16.60;27.18
84714;BME280;74938;42.658;23.248;2024-03-22T08:16:00;94230.69;;;16.88;27.37
84714;BME280;74938;42.658;23.248;2024-03-22T08:18:26;94224.50;;;16.54;27.68
84714;BME280;74938;42.658;23.248;2024-03-22T08:20:51;94227.97;;;16.08;29.27
84714;BME280;74938;42.658;23.248;2024-03-22T08:23:16;94221.03;;;14.95;29.41
84714;BME280;74938;42.658;23.248;2024-03-22T08:25:45;94219.56;;;13.89;31.37
84714;BME280;74938;42.658;23.248;2024-03-22T08:28:10;94216.75;;;14.34;31.03
84714;BME280;74938;42.658;23.248;2024-03-22T08:30:39;94215.06;;;14.40;31.48
84714;BME280;74938;42.658;23.248;2024-03-22T08:33:05;94219.03;;;14.79;32.02
84714;BME280;74938;42.658;23.248;2024-03-22T08:35:30;94215.28;;;14.75;31.10
84714;BME280;74938;42.658;23.248;2024-03-22T08:37:56;94215.69;;;14.90;30.52
84714;BME280;74938;42.658;23.248;2024-03-22T08:40:21;94225.03;;;15.09;29.89
84714;BME280;74938;42.658;23.248;2024-03-22T08:42:48;94219.38;;;15.12;28.86
84714;BME280;74938;42.658;23.248;2024-03-22T08:45:13;94228.28;;;15.23;29.20
84714;BME280;74938;42.658;23.248;2024-03-22T08:47:39;94226.84;;;14.60;28.57
84714;BME280;74938;42.658;23.248;2024-03-22T08:50:06;94222.47;;;14.91;29.50
84714;BME280;74938;42.658;23.248;2024-03-22T08:52:31;94232.25;;;14.77;29.49
84714;BME280;74938;42.658;23.248;2024-03-22T08:54:59;94224.03;;;14.62;31.36
84714;BME280;74938;42.658;23.248;2024-03-22T08:57:24;94221.16;;;15.00;30.20
84714;BME280;74938;42.658;23.248;2024-03-22T08:59:50;94214.41;;;15.11;30.85
84714;BME280;74938;42.658;23.248;2024-03-22T09:02:15;94213.69;;;14.74;29.73
84714;BME280;74938;42.658;23.248;2024-03-22T09:04:41;94226.44;;;13.28;31.60
84714;BME280;74938;42.658;23.248;2024-03-22T09:07:07;94223.81;;;13.59;32.33
84714;BME280;74938;42.658;23.248;2024-03-22T09:09:32;94222.06;;;14.21;30.91
84714;BME280;74938;42.658;23.248;2024-03-22T09:11:58;94223.63;;;14.04;31.36
84714;BME280;74938;42.658;23.248;2024-03-22T09:14:23;94220.06;;;13.55;30.69
84714;BME280;74938;42.658;23.248;2024-03-22T09:16:48;94209.78;;;12.14;33.49
84714;BME280;74938;42.658;23.248;2024-03-22T09:19:14;94205.41;;;13.04;32.55
84714;BME280;74938;42.658;23.248;2024-03-22T09:21:39;94193.16;;;13.18;33.55
84714;BME280;74938;42.658;23.248;2024-03-22T09:24:04;94204.06;;;13.33;32.66
84714;BME280;74938;42.658;23.248;2024-03-22T09:26:31;94204.69;;;13.53;31.81
84714;BME280;74938;42.658;23.248;2024-03-22T09:28:57;94202.50;;;13.75;31.47
84714;BME280;74938;42.658;23.248;2024-03-22T09:31:22;94193.41;;;13.66;30.66
84714;BME280;74938;42.658;23.248;2024-03-22T09:33:48;94202.22;;;13.02;31.02
84714;BME280;74938;42.658;23.248;2024-03-22T09:36:13;94197.88;;;12.96;31.41
84714;BME280;74938;42.658;23.248;2024-03-22T09:38:38;94197.38;;;13.44;30.81
84714;BME280;74938;42.658;23.248;2024-03-22T09:41:04;94194.03;;;13.37;31.52
84714;BME280;74938;42.658;23.248;2024-03-22T09:43:30;94188.19;;;13.16;32.84
84714;BME280;74938;42.658;23.248;2024-03-22T09:45:57;94196.31;;;13.27;31.65
84714;BME280;74938;42.658;23.248;2024-03-22T09:48:23;94196.69;;;13.55;32.17
84714;BME280;74938;42.658;23.248;2024-03-22T09:50:50;94197.00;;;13.15;32.37
84714;BME280;74938;42.658;23.248;2024-03-22T09:53:20;94188.50;;;13.76;31.50
84714;BME280;74938;42.658;23.248;2024-03-22T09:55:47;94182.97;;;13.91;32.15
84714;BME280;74938;42.658;23.248;2024-03-22T09:58:13;94181.78;;;13.69;31.53
84714;BME280;74938;42.658;23.248;2024-03-22T10:00:39;94182.69;;;13.81;31.93
84714;BME280;74938;42.658;23.248;2024-03-22T10:03:04;94191.41;;;13.43;31.17
84714;BME280;74938;42.658;23.248;2024-03-22T10:05:30;94188.94;;;13.23;31.90
84714;BME280;74938;42.658;23.248;2024-03-22T10:07:56;94168.44;;;13.09;32.89
84714;BME280;74938;42.658;23.248;2024-03-22T10:10:22;94180.63;;;13.08;31.50
84714;BME280;74938;42.658;23.248;2024-03-22T10:12:48;94180.22;;;13.11;31.86
84714;BME280;74938;42.658;23.248;2024-03-22T10:15:13;94178.13;;;13.27;31.85
84714;BME280;74938;42.658;23.248;2024-03-22T10:17:39;94182.22;;;13.41;32.23
84714;BME280;74938;42.658;23.248;2024-03-22T10:20:05;94185.06;;;13.01;33.13
84714;BME280;74938;42.658;23.248;2024-03-22T10:22:53;94187.00;;;12.81;32.58
84714;BME280;74938;42.658;23.248;2024-03-22T10:25:20;94181.00;;;12.80;32.62
84714;BME280;74938;42.658;23.248;2024-03-22T10:27:46;94177.03;;;13.41;32.74
84714;BME280;74938;42.658;23.248;2024-03-22T10:30:12;94170.94;;;13.29;32.71
84714;BME280;74938;42.658;23.248;2024-03-22T10:32:42;94164.25;;;13.64;31.71
84714;BME280;74938;42.658;23.248;2024-03-22T10:35:11;94156.41;;;13.89;31.87
84714;BME280;74938;42.658;23.248;2024-03-22T10:37:38;94164.56;;;13.92;31.20
84714;BME280;74938;42.658;23.248;2024-03-22T10:40:04;94163.06;;;13.10;31.72
84714;BME280;74938;42.658;23.248;2024-03-22T10:42:36;94156.28;;;13.16;31.36
84714;BME280;74938;42.658;23.248;2024-03-22T10:45:03;94150.31;;;13.02;32.93
84714;BME280;74938;42.658;23.248;2024-03-22T10:47:31;94147.31;;;12.74;32.15
84714;BME280;74938;42.658;23.248;2024-03-22T10:50:08;94137.63;;;12.63;33.66
84714;BME280;74938;42.658;23.248;2024-03-22T10:53:03;94137.94;;;12.73;33.59
84714;BME280;74938;42.658;23.248;2024-03-22T10:55:35;94145.44;;;13.19;33.31
84714;BME280;74938;42.658;23.248;2024-03-22T10:58:02;94141.16;;;13.00;33.08
84714;BME280;74938;42.658;23.248;2024-03-22T11:00:32;94139.53;;;13.05;32.59
84714;BME280;74938;42.658;23.248;2024-03-22T11:02:58;94130.41;;;13.28;32.48
84714;BME280;74938;42.658;23.248;2024-03-22T11:05:23;94134.25;;;13.18;32.45
84714;BME280;74938;42.658;23.248;2024-03-22T11:08:02;94131.25;;;13.46;31.84
84714;BME280;74938;42.658;23.248;2024-03-22T11:10:30;94121.88;;;12.89;30.88
84714;BME280;74938;42.658;23.248;2024-03-22T11:13:00;94131.56;;;13.00;31.21
84714;BME280;74938;42.658;23.248;2024-03-22T11:15:28;94119.31;;;12.51;31.56
84714;BME280;74938;42.658;23.248;2024-03-22T11:17:54;94124.66;;;12.94;30.82
84714;BME280;74938;42.658;23.248;2024-03-22T11:20:19;94112.00;;;13.04;31.19
84714;BME280;74938;42.658;23.248;2024-03-22T11:22:44;94116.22;;;13.30;32.22
84714;BME280;74938;42.658;23.248;2024-03-22T11:25:10;94123.78;;;13.00;31.67
84714;BME280;74938;42.658;23.248;2024-03-22T11:27:35;94112.16;;;13.16;31.87
84714;BME280;74938;42.658;23.248;2024-03-22T11:30:02;94104.53;;;13.39;33.04
84714;BME280;74938;42.658;23.248;2024-03-22T11:32:28;94096.88;;;13.26;30.51
84714;BME280;74938;42.658;23.248;2024-03-22T11:34:54;94111.75;;;13.37;32.37
84714;BME280;74938;42.658;23.248;2024-03-22T11:37:19;94106.22;;;12.77;31.00
84714;BME280;74938;42.658;23.248;2024-03-22T11:39:45;94102.41;;;13.05;31.74
84714;BME280;74938;42.658;23.248;2024-03-22T11:42:11;94099.75;;;12.86;31.55
84714;BME280;74938;42.658;23.248;2024-03-22T11:44:39;94098.59;;;13.07;31.95
84714;BME280;74938;42.658;23.248;2024-03-22T11:47:05;94095.00;;;13.15;30.98
84714;BME280;74938;42.658;23.248;2024-03-22T11:49:31;94099.56;;;13.13;31.54
84714;BME280;74938;42.658;23.248;2024-03-22T11:51:56;94100.16;;;12.83;31.73
84714;BME280;74938;42.658;23.248;2024-03-22T11:54:22;94089.91;;;12.95;33.14
84714;BME280;74938;42.658;23.248;2024-03-22T11:56:51;94093.53;;;12.94;31.95
84714;BME280;74938;42.658;23.248;2024-03-22T11:59:19;94084.72;;;12.95;31.00
84714;BME280;74938;42.658;23.248;2024-03-22T12:01:46;94077.84;;;13.07;31.79
84714;BME280;74938;42.658;23.248;2024-03-22T12:04:12;94060.75;;;13.24;31.39
84714;BME280;74938;42.658;23.248;2024-03-22T12:06:42;94067.78;;;13.42;31.24
84714;BME280;74938;42.658;23.248;2024-03-22T12:09:07;94068.72;;;13.48;31.18
84714;BME280;74938;42.658;23.248;2024-03-22T12:11:34;94067.28;;;13.02;31.94
84714;BME280;74938;42.658;23.248;2024-03-22T12:14:00;94066.78;;;12.94;31.02
84714;BME280;74938;42.658;23.248;2024-03-22T12:16:25;94068.50;;;13.31;31.48
84714;BME280;74938;42.658;23.248;2024-03-22T12:18:51;94065.78;;;13.19;30.37
84714;BME280;74938;42.658;23.248;2024-03-22T12:21:16;94065.41;;;13.41;30.91
84714;BME280;74938;42.658;23.248;2024-03-22T12:23:42;94063.97;;;13.20;30.08
84714;BME280;74938;42.658;23.248;2024-03-22T12:26:07;94053.75;;;13.00;31.00
84714;BME280;74938;42.658;23.248;2024-03-22T12:28:32;94053.06;;;12.62;31.01
84714;BME280;74938;42.658;23.248;2024-03-22T12:30:58;94050.53;;;13.30;31.18
84714;BME280;74938;42.658;23.248;2024-03-22T12:33:23;94045.06;;;13.38;30.20
84714;BME280;74938;42.658;23.248;2024-03-22T12:35:48;94045.66;;;13.58;30.13
84714;BME280;74938;42.658;23.248;2024-03-22T12:38:14;94036.06;;;13.58;30.06
84714;BME280;74938;42.658;23.248;2024-03-22T12:40:40;94037.84;;;13.40;31.13
84714;BME280;74938;42.658;23.248;2024-03-22T12:43:06;94037.78;;;13.65;30.90
84714;BME280;74938;42.658;23.248;2024-03-22T12:45:32;94038.50;;;13.72;29.96
84714;BME280;74938;42.658;23.248;2024-03-22T12:48:00;94037.00;;;13.46;30.46